sensor_id;sensor_type;location;lat;lon;timestamp;pressure;altitude;pressure_sealevel;temperature;humidity
47753;BME280;2038;51.728;6.674;2023-05-12T00:01:38;100809.53;;;15.32;100.00
47753;BME280;2038;51.728;6.674;2023-05-12T00:04:05;100802.91;;;15.37;100.00
47753;BME280;2038;51.728;6.674;2023-05-12T00:06:31;100806.31;;;15.36;100.00
47753;BME280;2038;51.728;6.674;2023-05-12T00:08:57;100808.69;;;15.33;100.00
47753;BME280;2038;51.728;6.674;2023-05-12T00:11:24;100800.34;;;15.37;100.00
47753;BME280;2038;51.728;6.674;2023-05-12T00:13:51;100800.13;;;15.33;100.00
47753;BME280;2038;51.728;6.674;2023-05-12T00:16:19;100806.16;;;15.16;100.00
47753;BME280;2038;51.728;6.674;2023-05-12T00:18:46;100800.06;;;15.14;100.00
47753;BME280;2038;51.728;6.674;2023-05-12T00:21:12;100792.13;;;15.09;100.00
47753;BME280;2038;51.728;6.674;2023-05-12T00:23:38;100787.28;;;14.97;100.00
47753;BME280;2038;51.728;6.674;2023-05-12T00:26:04;100787.75;;;15.07;100.00
47753;BME280;2038;51.728;6.674;2023-05-12T00:28:30;100785.25;;;15.08;100.00
47753;BME280;2038;51.728;6.674;2023-05-12T00:31:01;100787.84;;;15.08;100.00
47753;BME280;2038;51.728;6.674;2023-05-12T00:33:29;100783.63;;;14.92;100.00
47753;BME280;2038;51.728;6.674;2023-05-12T00:35:55;100775.56;;;15.03;100.00
47753;BME280;2038;51.728;6.674;2023-05-12T00:38:22;100781.72;;;15.06;100.00
47753;BME280;2038;51.728;6.674;2023-05-12T00:40:48;100782.88;;;15.13;100.00
47753;BME280;2038;51.728;6.674;2023-05-12T00:43:14;100785.09;;;15.05;100.00
47753;BME280;2038;51.728;6.674;2023-05-12T00:45:40;100777.63;;;15.10;100.00
47753;BME280;2038;51.728;6.674;2023-05-12T00:48:07;100783.72;;;15.12;100.00
47753;BME280;2038;51.728;6.674;2023-05-12T00:50:34;100780.97;;;15.09;100.00
47753;BME280;2038;51.728;6.674;2023-05-12T00:53:03;100772.91;;;15.01;100.00
47753;BME280;2038;51.728;6.674;2023-05-12T00:55:32;100775.25;;;14.96;100.00
47753;BME280;2038;51.728;6.674;2023-05-12T00:57:58;100774.03;;;15.06;100.00
47753;BME280;2038;51.728;6.674;2023-05-12T01:00:24;100764.66;;;15.07;100.00
47753;BME280;2038;51.728;6.674;2023-05-12T01:02:51;100764.66;;;15.24;100.00
47753;BME280;2038;51.728;6.674;2023-05-12T01:05:17;100764.81;;;15.29;100.00
47753;BME280;2038;51.728;6.674;2023-05-12T01:07:44;100769.38;;;15.34;100.00
47753;BME280;2038;51.728;6.674;2023-05-12T01:10:19;100771.28;;;15.38;100.00
47753;BME280;2038;51.728;6.674;2023-05-12T01:12:46;100762.34;;;15.30;100.00
47753;BME280;2038;51.728;6.674;2023-05-12T01:15:13;100766.53;;;15.28;100.00
47753;BME280;2038;51.728;6.674;2023-05-12T01:17:55;100763.22;;;15.13;100.00
47753;BME280;2038;51.728;6.674;2023-05-12T01:20:26;100762.56;;;15.17;100.00
47753;BME280;2038;51.728;6.674;2023-05-12T01:22:54;100769.13;;;15.11;100.00
47753;BME280;2038;51.728;6.674;2023-05-12T01:25:23;100758.41;;;15.02;100.00
47753;BME280;2038;51.728;6.674;2023-05-12T01:27:53;100762.44;;;15.14;100.00
47753;BME280;2038;51.728;6.674;2023-05-12T01:30:21;100760.91;;;15.00;100.00
47753;BME280;2038;51.728;6.674;2023-05-12T01:32:49;100763.41;;;14.98;100.00
47753;BME280;2038;51.728;6.674;2023-05-12T01:35:16;100758.94;;;15.12;100.00
47753;BME280;2038;51.728;6.674;2023-05-12T01:37:43;100763.31;;;15.15;100.00
47753;BME280;2038;51.728;6.674;2023-05-12T01:40:09;100764.06;;;14.94;100.00
47753;BME280;2038;51.728;6.674;2023-05-12T01:42:37;100760.69;;;14.95;100.00
47753;BME280;2038;51.728;6.674;2023-05-12T01:45:06;100761.34;;;14.91;100.00
47753;BME280;2038;51.728;6.674;2023-05-12T01:47:33;100761.59;;;14.96;100.00
47753;BME280;2038;51.728;6.674;2023-05-12T01:49:59;100764.50;;;15.04;100.00
47753;BME280;2038;51.728;6.674;2023-05-12T01:52:25;100757.69;;;15.04;100.00
47753;BME280;2038;51.728;6.674;2023-05-12T01:54:53;100758.25;;;14.98;100.00
47753;BME280;2038;51.728;6.674;2023-05-12T01:57:19;100761.94;;;15.04;100.00
47753;BME280;2038;51.728;6.674;2023-05-12T01:59:45;100759.94;;;14.98;100.00
47753;BME280;2038;51.728;6.674;2023-05-12T02:02:12;100759.25;;;15.37;100.00
47753;BME280;2038;51.728;6.674;2023-05-12T02:04:38;100753.22;;;15.55;100.00
47753;BME280;2038;51.728;6.674;2023-05-12T02:07:04;100761.84;;;15.02;100.00
47753;BME280;2038;51.728;6.674;2023-05-12T02:09:30;100753.13;;;14.81;100.00
47753;BME280;2038;51.728;6.674;2023-05-12T02:11:57;100754.88;;;14.82;100.00
47753;BME280;2038;51.728;6.674;2023-05-12T02:14:23;100756.66;;;14.83;100.00
47753;BME280;2038;51.728;6.674;2023-05-12T02:16:49;100751.31;;;14.96;100.00
47753;BME280;2038;51.728;6.674;2023-05-12T02:19:18;100750.66;;;15.00;100.00
47753;BME280;2038;51.728;6.674;2023-05-12T02:21:46;100752.38;;;15.01;100.00
47753;BME280;2038;51.728;6.674;2023-05-12T02:24:12;100746.84;;;14.92;100.00
47753;BME280;2038;51.728;6.674;2023-05-12T02:26:39;100760.69;;;14.95;100.00
47753;BME280;2038;51.728;6.674;2023-05-12T02:29:05;100752.09;;;14.95;100.00
47753;BME280;2038;51.728;6.674;2023-05-12T02:31:31;100753.03;;;14.97;100.00
47753;BME280;2038;51.728;6.674;2023-05-12T02:33:57;100752.38;;;15.01;100.00
47753;BME280;2038;51.728;6.674;2023-05-12T02:36:24;100753.22;;;15.00;100.00
47753;BME280;2038;51.728;6.674;2023-05-12T02:38:50;100749.59;;;14.96;100.00
47753;BME280;2038;51.728;6.674;2023-05-12T02:41:16;100740.16;;;14.95;100.00
47753;BME280;2038;51.728;6.674;2023-05-12T02:43:43;100749.25;;;15.07;100.00
47753;BME280;2038;51.728;6.674;2023-05-12T02:46:09;100747.78;;;14.94;100.00
47753;BME280;2038;51.728;6.674;2023-05-12T02:48:35;100747.69;;;14.92;100.00
47753;BME280;2038;51.728;6.674;2023-05-12T02:51:01;100750.72;;;14.84;100.00
47753;BME280;2038;51.728;6.674;2023-05-12T02:53:28;100750.44;;;14.95;100.00
47753;BME280;2038;51.728;6.674;2023-05-12T02:55:54;100748.88;;;14.99;100.00
47753;BME280;2038;51.728;6.674;2023-05-12T02:58:20;100760.09;;;15.01;100.00
47753;BME280;2038;51.728;6.674;2023-05-12T03:00:47;100750.66;;;15.00;100.00
47753;BME280;2038;51.728;6.674;2023-05-12T03:03:13;100754.06;;;15.00;100.00
47753;BME280;2038;51.728;6.674;2023-05-12T03:05:39;100754.06;;;15.00;100.00
47753;BME280;2038;51.728;6.674;2023-05-12T03:08:06;100762.66;;;15.01;100.00
47753;BME280;2038;51.728;6.674;2023-05-12T03:10:32;100758.41;;;15.02;100.00
47753;BME280;2038;51.728;6.674;2023-05-12T03:12:58;100762.91;;;14.88;100.00
47753;BME280;2038;51.728;6.674;2023-05-12T03:15:24;100754.88;;;14.82;100.00
47753;BME280;2038;51.728;6.674;2023-05-12T03:17:50;100763.25;;;14.95;100.00
47753;BME280;2038;51.728;6.674;2023-05-12T03:20:17;100758.94;;;14.94;100.00
47753;BME280;2038;51.728;6.674;2023-05-12T03:22:43;100761.72;;;14.99;100.00
47753;BME280;2038;51.728;6.674;2023-05-12T03:25:10;100759.00;;;14.96;100.00
47753;BME280;2038;51.728;6.674;2023-05-12T03:27:37;100761.50;;;14.94;100.00
47753;BME280;2038;51.728;6.674;2023-05-12T03:30:03;100761.94;;;14.86;100.00
47753;BME280;2038;51.728;6.674;2023-05-12T03:32:30;100755.53;;;14.78;100.00
47753;BME280;2038;51.728;6.674;2023-05-12T03:34:56;100762.53;;;14.80;100.00
47753;BME280;2038;51.728;6.674;2023-05-12T03:37:23;100759.31;;;14.84;100.00
47753;BME280;2038;51.728;6.674;2023-05-12T03:39:49;100768.88;;;14.88;100.00
47753;BME280;2038;51.728;6.674;2023-05-12T03:42:15;100770.41;;;14.85;100.00
47753;BME280;2038;51.728;6.674;2023-05-12T03:44:41;100772.28;;;14.87;100.00
47753;BME280;2038;51.728;6.674;2023-05-12T03:47:08;100774.53;;;14.81;100.00
47753;BME280;2038;51.728;6.674;2023-05-12T03:49:34;100777.47;;;14.89;100.00
47753;BME280;2038;51.728;6.674;2023-05-12T03:52:02;100770.41;;;14.85;100.00
47753;BME280;2038;51.728;6.674;2023-05-12T03:54:28;100782.31;;;14.83;100.00
47753;BME280;2038;51.728;6.674;2023-05-12T03:56:55;100782.47;;;14.86;100.00
47753;BME280;2038;51.728;6.674;2023-05-12T03:59:21;100785.25;;;14.90;100.00
47753;BME280;2038;51.728;6.674;2023-05-12T04:01:47;100787.06;;;14.93;100.00
47753;BME280;2038;51.728;6.674;2023-05-12T04:04:14;100782.59;;;14.89;100.00
47753;BME280;2038;51.728;6.674;2023-05-12T04:06:40;100788.63;;;14.89;100.00
47753;BME280;2038;51.728;6.674;2023-05-12T04:09:06;100790.66;;;14.79;100.00
47753;BME280;2038;51.728;6.674;2023-05-12T04:11:33;100789.34;;;14.87;100.00
47753;BME280;2038;51.728;6.674;2023-05-12T04:13:59;100794.78;;;14.93;100.00
47753;BME280;2038;51.728;6.674;2023-05-12T04:16:25;100799.47;;;14.84;100.00
47753;BME280;2038;51.728;6.674;2023-05-12T04:18:51;100789.00;;;14.79;100.00
47753;BME280;2038;51.728;6.674;2023-05-12T04:21:17;100803.78;;;14.85;100.00
47753;BME280;2038;51.728;6.674;2023-05-12T04:23:44;100800.19;;;14.81;100.00
47753;BME280;2038;51.728;6.674;2023-05-12T04:26:10;100801.97;;;14.82;100.00
47753;BME280;2038;51.728;6.674;2023-05-12T04:28:36;100798.66;;;14.85;100.00
47753;BME280;2038;51.728;6.674;2023-05-12T04:31:03;100802.63;;;14.78;100.00
47753;BME280;2038;51.728;6.674;2023-05-12T04:33:29;100812.22;;;14.82;100.00
47753;BME280;2038;51.728;6.674;2023-05-12T04:35:56;100805.56;;;14.86;100.00
47753;BME280;2038;51.728;6.674;2023-05-12T04:38:23;100815.97;;;14.89;100.00
47753;BME280;2038;51.728;6.674;2023-05-12T04:40:50;100811.19;;;14.96;100.00
47753;BME280;2038;51.728;6.674;2023-05-12T04:43:16;100814.50;;;14.94;100.00
47753;BME280;2038;51.728;6.674;2023-05-12T04:45:42;100819.88;;;14.98;100.00
47753;BME280;2038;51.728;6.674;2023-05-12T04:48:09;100821.63;;;14.99;100.00
47753;BME280;2038;51.728;6.674;2023-05-12T04:50:35;100825.75;;;14.96;100.00
47753;BME280;2038;51.728;6.674;2023-05-12T04:53:01;100838.56;;;14.96;100.00
47753;BME280;2038;51.728;6.674;2023-05-12T04:55:27;100837.31;;;15.06;100.00
47753;BME280;2038;51.728;6.674;2023-05-12T04:57:53;100839.75;;;15.03;100.00
47753;BME280;2038;51.728;6.674;2023-05-12T05:00:20;100849.34;;;15.07;100.00
47753;BME280;2038;51.728;6.674;2023-05-12T05:02:46;100843.41;;;15.08;100.00
47753;BME280;2038;51.728;6.674;2023-05-12T05:05:12;100849.25;;;15.05;100.00
47753;BME280;2038;51.728;6.674;2023-05-12T05:07:38;100860.19;;;15.01;100.00
47753;BME280;2038;51.728;6.674;2023-05-12T05:10:05;100860.28;;;15.03;100.00
47753;BME280;2038;51.728;6.674;2023-05-12T05:12:32;100870.03;;;14.92;100.00
47753;BME280;2038;51.728;6.674;2023-05-12T05:14:58;100873.53;;;14.94;100.00
47753;BME280;2038;51.728;6.674;2023-05-12T05:17:24;100876.75;;;14.90;100.00
47753;BME280;2038;51.728;6.674;2023-05-12T05:19:50;100879.69;;;14.97;100.00
47753;BME280;2038;51.728;6.674;2023-05-12T05:22:16;100876.56;;;15.03;100.00
47753;BME280;2038;51.728;6.674;2023-05-12T05:24:43;100877.44;;;15.04;100.00
47753;BME280;2038;51.728;6.674;2023-05-12T05:27:09;100884.25;;;15.03;100.00
47753;BME280;2038;51.728;6.674;2023-05-12T05:29:36;100893.00;;;15.07;100.00
47753;BME280;2038;51.728;6.674;2023-05-12T05:32:03;100897.34;;;15.08;100.00
47753;BME280;2038;51.728;6.674;2023-05-12T05:34:29;100898.88;;;15.04;100.00
47753;BME280;2038;51.728;6.674;2023-05-12T05:36:55;100893.91;;;14.91;100.00
47753;BME280;2038;51.728;6.674;2023-05-12T05:39:21;100900.53;;;15.04;100.00
47753;BME280;2038;51.728;6.674;2023-05-12T05:41:48;100905.81;;;15.07;100.00
47753;BME280;2038;51.728;6.674;2023-05-12T05:44:14;100901.03;;;14.96;100.00
47753;BME280;2038;51.728;6.674;2023-05-12T05:46:40;100918.34;;;15.00;100.00
47753;BME280;2038;51.728;6.674;2023-05-12T05:49:06;100909.28;;;15.07;100.00
47753;BME280;2038;51.728;6.674;2023-05-12T05:51:33;100922.63;;;15.00;100.00
47753;BME280;2038;51.728;6.674;2023-05-12T05:53:59;100922.84;;;14.88;100.00
47753;BME280;2038;51.728;6.674;2023-05-12T05:56:25;100929.72;;;15.06;100.00
47753;BME280;2038;51.728;6.674;2023-05-12T05:58:51;100936.72;;;15.08;100.00
47753;BME280;2038;51.728;6.674;2023-05-12T06:01:18;100931.13;;;15.17;100.00
47753;BME280;2038;51.728;6.674;2023-05-12T06:03:44;100942.06;;;15.13;100.00
47753;BME280;2038;51.728;6.674;2023-05-12T06:06:10;100940.84;;;15.22;100.00
47753;BME280;2038;51.728;6.674;2023-05-12T06:08:36;100946.59;;;15.34;100.00
47753;BME280;2038;51.728;6.674;2023-05-12T06:11:03;100945.47;;;15.29;100.00
47753;BME280;2038;51.728;6.674;2023-05-12T06:13:29;100953.28;;;15.49;100.00
47753;BME280;2038;51.728;6.674;2023-05-12T06:15:56;100959.03;;;15.61;100.00
47753;BME280;2038;51.728;6.674;2023-05-12T06:18:22;100960.22;;;15.67;100.00
47753;BME280;2038;51.728;6.674;2023-05-12T06:20:48;100963.06;;;15.73;100.00
47753;BME280;2038;51.728;6.674;2023-05-12T06:23:14;100962.84;;;15.86;100.00
47753;BME280;2038;51.728;6.674;2023-05-12T06:25:41;100965.44;;;16.04;100.00
47753;BME280;2038;51.728;6.674;2023-05-12T06:28:07;100970.59;;;16.23;100.00
47753;BME280;2038;51.728;6.674;2023-05-12T06:30:33;100978.03;;;16.17;100.00
47753;BME280;2038;51.728;6.674;2023-05-12T06:33:00;100971.44;;;16.42;100.00
47753;BME280;2038;51.728;6.674;2023-05-12T06:35:26;100972.31;;;16.60;100.00
47753;BME280;2038;51.728;6.674;2023-05-12T06:37:52;100979.91;;;16.76;100.00
47753;BME280;2038;51.728;6.674;2023-05-12T06:40:18;100969.94;;;16.83;100.00
47753;BME280;2038;51.728;6.674;2023-05-12T06:42:44;100971.06;;;16.52;100.00
47753;BME280;2038;51.728;6.674;2023-05-12T06:45:11;100983.28;;;16.75;100.00
47753;BME280;2038;51.728;6.674;2023-05-12T06:47:38;100984.56;;;16.84;100.00
47753;BME280;2038;51.728;6.674;2023-05-12T06:50:08;100985.78;;;16.93;100.00
47753;BME280;2038;51.728;6.674;2023-05-12T06:52:35;100990.56;;;16.85;100.00
47753;BME280;2038;51.728;6.674;2023-05-12T06:55:01;100991.38;;;17.03;100.00
47753;BME280;2038;51.728;6.674;2023-05-12T06:57:28;100993.84;;;17.00;100.00
47753;BME280;2038;51.728;6.674;2023-05-12T06:59:54;100997.97;;;16.97;100.00
47753;BME280;2038;51.728;6.674;2023-05-12T07:02:20;101001.13;;;17.10;100.00
47753;BME280;2038;51.728;6.674;2023-05-12T07:04:46;101000.81;;;17.03;100.00
47753;BME280;2038;51.728;6.674;2023-05-12T07:07:12;101003.59;;;16.88;100.00
47753;BME280;2038;51.728;6.674;2023-05-12T07:09:39;101002.44;;;16.81;100.00
47753;BME280;2038;51.728;6.674;2023-05-12T07:12:07;101002.03;;;16.92;100.00
47753;BME280;2038;51.728;6.674;2023-05-12T07:14:33;101010.66;;;16.92;100.00
47753;BME280;2038;51.728;6.674;2023-05-12T07:16:59;101015.50;;;17.05;100.00
47753;BME280;2038;51.728;6.674;2023-05-12T07:19:25;101014.78;;;16.89;100.00
47753;BME280;2038;51.728;6.674;2023-05-12T07:21:52;101016.13;;;17.00;100.00
47753;BME280;2038;51.728;6.674;2023-05-12T07:24:18;101018.06;;;17.24;100.00
47753;BME280;2038;51.728;6.674;2023-05-12T07:26:44;101021.59;;;17.26;100.00
47753;BME280;2038;51.728;6.674;2023-05-12T07:29:11;101019.66;;;17.21;100.00
47753;BME280;2038;51.728;6.674;2023-05-12T07:31:37;101028.66;;;17.11;100.00
47753;BME280;2038;51.728;6.674;2023-05-12T07:34:03;101028.53;;;17.08;100.00
47753;BME280;2038;51.728;6.674;2023-05-12T07:36:30;101027.84;;;17.12;100.00
47753;BME280;2038;51.728;6.674;2023-05-12T07:38:56;101025.31;;;17.14;100.00
47753;BME280;2038;51.728;6.674;2023-05-12T07:41:23;101035.75;;;16.98;100.00
47753;BME280;2038;51.728;6.674;2023-05-12T07:43:49;101033.88;;;17.13;100.00
47753;BME280;2038;51.728;6.674;2023-05-12T07:46:15;101041.06;;;17.01;100.00
47753;BME280;2038;51.728;6.674;2023-05-12T07:48:41;101044.16;;;16.94;100.00
47753;BME280;2038;51.728;6.674;2023-05-12T07:51:08;101038.56;;;16.83;100.00
47753;BME280;2038;51.728;6.674;2023-05-12T07:53:34;101037.75;;;16.84;100.00
47753;BME280;2038;51.728;6.674;2023-05-12T07:56:01;101040.56;;;16.71;100.00
47753;BME280;2038;51.728;6.674;2023-05-12T07:58:27;101039.09;;;16.76;100.00
47753;BME280;2038;51.728;6.674;2023-05-12T08:00:53;101047.06;;;16.63;100.00
47753;BME280;2038;51.728;6.674;2023-05-12T08:03:20;101045.50;;;16.66;100.00
47753;BME280;2038;51.728;6.674;2023-05-12T08:05:46;101042.13;;;16.67;100.00
47753;BME280;2038;51.728;6.674;2023-05-12T08:08:12;101053.69;;;16.58;100.00
47753;BME280;2038;51.728;6.674;2023-05-12T08:10:42;101053.75;;;16.42;100.00
47753;BME280;2038;51.728;6.674;2023-05-12T08:13:09;101050.28;;;16.41;100.00
47753;BME280;2038;51.728;6.674;2023-05-12T08:15:35;101053.91;;;16.45;100.00
47753;BME280;2038;51.728;6.674;2023-05-12T08:18:01;101059.13;;;16.64;100.00
47753;BME280;2038;51.728;6.674;2023-05-12T08:20:28;101058.31;;;16.65;100.00
47753;BME280;2038;51.728;6.674;2023-05-12T08:22:54;101059.34;;;16.51;100.00
47753;BME280;2038;51.728;6.674;2023-05-12T08:25:20;101061.25;;;16.55;100.00
47753;BME280;2038;51.728;6.674;2023-05-12T08:27:46;101062.28;;;16.58;100.00
47753;BME280;2038;51.728;6.674;2023-05-12T08:30:13;101066.97;;;16.67;100.00
47753;BME280;2038;51.728;6.674;2023-05-12T08:32:39;101067.06;;;16.68;100.00
47753;BME280;2038;51.728;6.674;2023-05-12T08:35:06;101076.03;;;16.59;100.00
47753;BME280;2038;51.728;6.674;2023-05-12T08:37:32;101080.06;;;16.71;100.00
47753;BME280;2038;51.728;6.674;2023-05-12T08:39:58;101080.13;;;16.55;100.00
47753;BME280;2038;51.728;6.674;2023-05-12T08:42:43;101086.81;;;16.69;100.00
47753;BME280;2038;51.728;6.674;2023-05-12T08:45:20;101090.13;;;16.84;100.00
47753;BME280;2038;51.728;6.674;2023-05-12T08:47:49;101092.88;;;16.89;100.00
47753;BME280;2038;51.728;6.674;2023-05-12T08:50:17;101099.41;;;16.81;100.00
47753;BME280;2038;51.728;6.674;2023-05-12T08:52:48;101094.19;;;16.99;100.00
47753;BME280;2038;51.728;6.674;2023-05-12T08:55:15;101101.78;;;16.96;100.00
47753;BME280;2038;51.728;6.674;2023-05-12T08:57:43;101101.44;;;16.88;100.00
47753;BME280;2038;51.728;6.674;2023-05-12T09:00:14;101098.00;;;17.07;100.00
47753;BME280;2038;51.728;6.674;2023-05-12T09:02:42;101107.97;;;16.81;100.00
47753;BME280;2038;51.728;6.674;2023-05-12T09:05:09;101103.22;;;17.08;100.00
47753;BME280;2038;51.728;6.674;2023-05-12T09:07:38;101111.53;;;17.03;100.00
47753;BME280;2038;51.728;6.674;2023-05-12T09:10:13;101110.09;;;17.09;100.00
47753;BME280;2038;51.728;6.674;2023-05-12T09:12:43;101114.66;;;17.15;100.00
47753;BME280;2038;51.728;6.674;2023-05-12T09:15:22;101108.81;;;17.38;100.00
47753;BME280;2038;51.728;6.674;2023-05-12T09:17:52;101106.66;;;17.47;100.00
47753;BME280;2038;51.728;6.674;2023-05-12T09:20:18;101103.28;;;17.48;100.00
47753;BME280;2038;51.728;6.674;2023-05-12T09:22:45;101100.41;;;17.81;100.00
47753;BME280;2038;51.728;6.674;2023-05-12T09:25:18;101099.06;;;17.90;100.00
47753;BME280;2038;51.728;6.674;2023-05-12T09:27:47;101102.34;;;18.07;100.00
47753;BME280;2038;51.728;6.674;2023-05-12T09:30:15;101100.94;;;18.15;100.00
47753;BME280;2038;51.728;6.674;2023-05-12T09:32:41;101099.66;;;18.26;100.00
47753;BME280;2038;51.728;6.674;2023-05-12T09:35:09;101107.56;;;18.29;99.18
47753;BME280;2038;51.728;6.674;2023-05-12T09:37:36;101112.44;;;18.44;98.37
47753;BME280;2038;51.728;6.674;2023-05-12T09:40:05;101112.06;;;18.55;97.91
47753;BME280;2038;51.728;6.674;2023-05-12T09:42:34;101104.56;;;18.84;99.35
47753;BME280;2038;51.728;6.674;2023-05-12T09:45:04;101113.41;;;18.90;97.19
47753;BME280;2038;51.728;6.674;2023-05-12T09:47:37;101106.19;;;19.04;96.90
47753;BME280;2038;51.728;6.674;2023-05-12T09:50:06;101113.28;;;19.09;99.15
47753;BME280;2038;51.728;6.674;2023-05-12T09:52:39;101115.72;;;19.29;96.27
47753;BME280;2038;51.728;6.674;2023-05-12T09:55:09;101119.56;;;19.40;97.59
47753;BME280;2038;51.728;6.674;2023-05-12T09:57:41;101120.09;;;19.31;93.50
47753;BME280;2038;51.728;6.674;2023-05-12T10:00:10;101118.69;;;19.63;95.67
47753;BME280;2038;51.728;6.674;2023-05-12T10:02:47;101113.66;;;19.68;94.52
47753;BME280;2038;51.728;6.674;2023-05-12T10:05:15;101111.53;;;19.56;93.21
47753;BME280;2038;51.728;6.674;2023-05-12T10:07:48;101119.94;;;19.50;94.81
47753;BME280;2038;51.728;6.674;2023-05-12T10:10:22;101114.13;;;19.56;94.15
47753;BME280;2038;51.728;6.674;2023-05-12T10:12:49;101119.44;;;19.37;93.97
47753;BME280;2038;51.728;6.674;2023-05-12T10:15:17;101122.06;;;19.60;92.67
47753;BME280;2038;51.728;6.674;2023-05-12T10:17:45;101127.50;;;19.44;91.58
47753;BME280;2038;51.728;6.674;2023-05-12T10:20:13;101116.06;;;19.61;91.87
47753;BME280;2038;51.728;6.674;2023-05-12T10:22:41;101117.84;;;19.64;92.54
47753;BME280;2038;51.728;6.674;2023-05-12T10:25:10;101123.19;;;19.69;93.40
47753;BME280;2038;51.728;6.674;2023-05-12T10:27:38;101114.97;;;19.80;93.37
47753;BME280;2038;51.728;6.674;2023-05-12T10:30:07;101119.69;;;19.92;94.11
47753;BME280;2038;51.728;6.674;2023-05-12T10:32:35;101116.84;;;20.11;94.15
47753;BME280;2038;51.728;6.674;2023-05-12T10:35:11;101118.97;;;20.23;93.49
47753;BME280;2038;51.728;6.674;2023-05-12T10:37:38;101124.06;;;20.20;89.85
47753;BME280;2038;51.728;6.674;2023-05-12T10:40:07;101120.81;;;20.27;89.79
47753;BME280;2038;51.728;6.674;2023-05-12T10:42:40;101121.69;;;20.26;90.13
47753;BME280;2038;51.728;6.674;2023-05-12T10:45:15;101112.22;;;20.01;88.77
47753;BME280;2038;51.728;6.674;2023-05-12T10:47:43;101116.69;;;20.05;89.93
47753;BME280;2038;51.728;6.674;2023-05-12T10:50:10;101114.72;;;19.98;90.62
47753;BME280;2038;51.728;6.674;2023-05-12T10:52:51;101112.78;;;20.18;90.94
47753;BME280;2038;51.728;6.674;2023-05-12T10:55:33;101115.81;;;20.31;93.10
47753;BME280;2038;51.728;6.674;2023-05-12T10:58:19;101106.97;;;20.25;91.33
47753;BME280;2038;51.728;6.674;2023-05-12T11:00:49;101107.56;;;20.43;92.26
47753;BME280;2038;51.728;6.674;2023-05-12T11:03:22;101117.34;;;20.51;93.06
47753;BME280;2038;51.728;6.674;2023-05-12T11:06:00;101116.88;;;20.65;90.30
47753;BME280;2038;51.728;6.674;2023-05-12T11:08:30;101110.66;;;20.58;90.91
47753;BME280;2038;51.728;6.674;2023-05-12T11:10:57;101112.91;;;20.76;91.91
47753;BME280;2038;51.728;6.674;2023-05-12T11:13:23;101114.44;;;20.69;91.14
47753;BME280;2038;51.728;6.674;2023-05-12T11:15:50;101113.63;;;20.70;87.96
47753;BME280;2038;51.728;6.674;2023-05-12T11:18:21;101117.03;;;20.42;86.72
47753;BME280;2038;51.728;6.674;2023-05-12T11:20:49;101106.38;;;20.60;90.11
47753;BME280;2038;51.728;6.674;2023-05-12T11:23:28;101114.00;;;20.55;88.48
47753;BME280;2038;51.728;6.674;2023-05-12T11:25:55;101113.63;;;20.43;87.33
47753;BME280;2038;51.728;6.674;2023-05-12T11:28:21;101112.72;;;20.41;88.13
47753;BME280;2038;51.728;6.674;2023-05-12T11:30:51;101110.94;;;20.40;88.37
47753;BME280;2038;51.728;6.674;2023-05-12T11:33:22;101111.44;;;20.29;87.10
47753;BME280;2038;51.728;6.674;2023-05-12T11:35:48;101118.22;;;20.27;88.79
47753;BME280;2038;51.728;6.674;2023-05-12T11:38:16;101109.75;;;20.29;88.56
47753;BME280;2038;51.728;6.674;2023-05-12T11:40:44;101108.72;;;20.26;88.03
47753;BME280;2038;51.728;6.674;2023-05-12T11:43:11;101107.19;;;20.31;87.47
47753;BME280;2038;51.728;6.674;2023-05-12T11:45:40;101112.41;;;20.32;88.55
47753;BME280;2038;51.728;6.674;2023-05-12T11:48:07;101111.09;;;20.45;88.80
47753;BME280;2038;51.728;6.674;2023-05-12T11:50:39;101122.28;;;20.44;89.29
47753;BME280;2038;51.728;6.674;2023-05-12T11:53:10;101123.34;;;20.50;87.29
47753;BME280;2038;51.728;6.674;2023-05-12T11:55:47;101121.28;;;20.67;88.64
47753;BME280;2038;51.728;6.674;2023-05-12T11:58:20;101126.81;;;20.79;87.66
47753;BME280;2038;51.728;6.674;2023-05-12T12:00:49;101124.50;;;20.88;89.04
47753;BME280;2038;51.728;6.674;2023-05-12T12:03:15;101123.81;;;20.94;88.53
47753;BME280;2038;51.728;6.674;2023-05-12T12:05:44;101127.63;;;21.07;86.69
47753;BME280;2038;51.728;6.674;2023-05-12T12:08:21;101127.03;;;20.85;86.07
47753;BME280;2038;51.728;6.674;2023-05-12T12:10:48;101130.66;;;20.92;86.13
47753;BME280;2038;51.728;6.674;2023-05-12T12:13:21;101131.25;;;20.83;86.13
47753;BME280;2038;51.728;6.674;2023-05-12T12:15:49;101131.41;;;20.88;87.93
47753;BME280;2038;51.728;6.674;2023-05-12T12:18:16;101142.94;;;20.97;86.06
47753;BME280;2038;51.728;6.674;2023-05-12T12:20:45;101139.13;;;20.86;86.66
47753;BME280;2038;51.728;6.674;2023-05-12T12:23:11;101128.91;;;20.91;85.59
47753;BME280;2038;51.728;6.674;2023-05-12T12:25:38;101137.56;;;20.91;85.79
47753;BME280;2038;51.728;6.674;2023-05-12T12:28:04;101137.16;;;21.06;85.57
47753;BME280;2038;51.728;6.674;2023-05-12T12:30:30;101140.38;;;20.99;86.65
47753;BME280;2038;51.728;6.674;2023-05-12T12:32:56;101140.50;;;21.03;86.18
47753;BME280;2038;51.728;6.674;2023-05-12T12:35:23;101138.88;;;21.07;85.07
47753;BME280;2038;51.728;6.674;2023-05-12T12:37:49;101145.69;;;21.03;84.44
47753;BME280;2038;51.728;6.674;2023-05-12T12:40:19;101148.38;;;21.07;84.21
47753;BME280;2038;51.728;6.674;2023-05-12T12:42:45;101142.72;;;21.18;86.61
47753;BME280;2038;51.728;6.674;2023-05-12T12:45:12;101138.72;;;21.29;86.56
47753;BME280;2038;51.728;6.674;2023-05-12T12:47:38;101129.66;;;21.46;87.11
47753;BME280;2038;51.728;6.674;2023-05-12T12:50:06;101134.16;;;21.52;83.85
47753;BME280;2038;51.728;6.674;2023-05-12T12:52:35;101136.44;;;21.73;85.51
47753;BME280;2038;51.728;6.674;2023-05-12T12:55:04;101138.97;;;21.70;82.88